Chattanooga Airport (CHA)

 

Airport Diagram
Current Weather/Forecast (VFR Conditions)
METAR KCHA 290353Z 00000KT 10SM SCT250 08/06 A3014 RMK AO2 SLP203 T00780061
TAF KCHA 282320Z 2900/2924 VRB03KT P6SM FEW250 FM291200 00000KT P6SM BKN027 PROB30 2920/2922 4SM -SHRA BR OVC008 FM292200 12005KT P6SM -SHRA OVC020

All Charts
General
Chart Name Download
AIRPORT DIAGRAM
TAKEOFF MINIMUMS
ALTERNATE MINIMUMS

Departures
Chart Name Download
CHATTANOOGA SEVEN

Approaches
Chart Name Download
ILS OR LOC RWY 02
ILS OR LOC RWY 20
ILS RWY 20 (CAT II)
RNAV (GPS) RWY 02
RNAV (GPS) RWY 15
RNAV (GPS) RWY 20
RNAV (GPS) RWY 33
VOR RWY 33


Inbound Traffic (Arrivals)

No inbound traffic.


Outbound Traffic (Departures)

No outbound traffic.